createdAt,value
2018-05-21T00:01:45.674Z,98511.25
2018-05-21T00:04:14.593Z,98511.16
2018-05-21T00:06:45.049Z,98520.13
2018-05-21T00:09:13.851Z,98518.38
2018-05-21T00:11:43.625Z,98527.05
2018-05-21T00:14:12.632Z,98527.34
2018-05-21T00:16:42.189Z,98522.92
2018-05-21T00:19:11.460Z,98530.34
2018-05-21T00:21:40.654Z,98534.48
2018-05-21T00:24:09.917Z,98540.67
2018-05-21T00:26:39.245Z,98547.16
2018-05-21T00:29:07.877Z,98546.43
2018-05-21T00:31:37.736Z,98549.72
2018-05-21T00:34:07.368Z,98556.54
2018-05-21T00:36:37.057Z,98553.76
2018-05-21T00:39:06.458Z,98556.54
2018-05-21T00:41:35.990Z,98558.59
2018-05-21T00:44:05.741Z,98567.55
2018-05-21T00:46:35.106Z,98572.81
2018-05-21T00:49:04.258Z,98572.59
2018-05-21T00:51:34.161Z,98580.24
2018-05-21T00:54:03.720Z,98580.95
2018-05-21T00:56:32.946Z,98581.28
2018-05-21T00:59:01.742Z,98578.17
2018-05-21T01:01:30.656Z,98579.30
2018-05-21T01:04:00.022Z,98584.07
2018-05-21T01:06:29.044Z,98589.11
2018-05-21T01:08:59.291Z,98590.34
2018-05-21T01:11:29.046Z,98593.44
2018-05-21T01:13:58.094Z,98599.34
2018-05-21T01:16:27.921Z,98600.15
2018-05-21T01:18:57.275Z,98605.16
2018-05-21T01:21:26.184Z,98613.37
2018-05-21T01:23:55.526Z,98608.17
2018-05-21T01:26:25.483Z,98615.50
2018-05-21T01:28:54.643Z,98615.83
2018-05-21T01:31:23.880Z,98616.97
2018-05-21T01:33:52.886Z,98618.21
2018-05-21T01:36:22.664Z,98621.53
2018-05-21T01:38:51.822Z,98619.67
2018-05-21T01:41:22.035Z,98619.27
2018-05-21T01:43:51.383Z,98620.89
2018-05-21T01:46:20.376Z,98627.08
2018-05-21T01:48:49.077Z,98624.38
2018-05-21T01:51:18.685Z,98626.03
2018-05-21T01:53:47.547Z,98625.01
2018-05-21T01:56:16.325Z,98630.05
2018-05-21T01:58:44.817Z,98627.72
2018-05-21T02:01:14.426Z,98636.71
2018-05-21T02:03:44.041Z,98637.41
2018-05-21T02:06:13.498Z,98635.95
2018-05-21T02:08:42.805Z,98638.75
2018-05-21T02:11:11.711Z,98638.48
2018-05-21T02:13:40.832Z,98644.36
2018-05-21T02:16:10.853Z,98644.50
2018-05-21T02:18:40.162Z,98647.42
2018-05-21T02:21:09.610Z,98649.59
2018-05-21T02:23:38.870Z,98652.83
2018-05-21T02:26:08.291Z,98657.19
2018-05-21T02:28:53.516Z,98672.59
2018-05-21T02:31:23.526Z,98668.52
2018-05-21T02:33:52.714Z,98668.64
2018-05-21T02:36:22.238Z,98669.95
2018-05-21T02:38:52.185Z,98677.48
2018-05-21T02:41:21.202Z,98680.73
2018-05-21T02:44:04.726Z,98692.29
2018-05-21T02:46:38.405Z,98691.72
2018-05-21T02:49:07.212Z,98699.98
2018-05-21T02:51:36.429Z,98706.42
2018-05-21T02:54:05.982Z,98712.97
2018-05-21T02:56:35.863Z,98710.54
2018-05-21T02:59:05.702Z,98711.72
2018-05-21T03:01:35.329Z,98709.20
2018-05-21T03:04:05.833Z,98704.67
2018-05-21T03:06:34.997Z,98713.00
2018-05-21T03:09:05.016Z,98714.30
2018-05-21T03:11:33.985Z,98707.34
2018-05-21T03:14:03.178Z,98707.00
2018-05-21T03:16:32.376Z,98714.38
2018-05-21T03:19:01.421Z,98710.86
2018-05-21T03:21:30.640Z,98722.44
2018-05-21T03:24:00.229Z,98725.86
2018-05-21T03:26:29.269Z,98720.91
2018-05-21T03:28:59.126Z,98722.38
2018-05-21T03:31:28.154Z,98718.86
2018-05-21T03:33:57.823Z,98726.02
2018-05-21T03:36:27.411Z,98719.56
2018-05-21T03:38:57.246Z,98726.62
2018-05-21T03:41:26.647Z,98717.14
2018-05-21T03:44:01.500Z,98725.89
2018-05-21T03:46:36.043Z,98725.08
2018-05-21T03:49:10.915Z,98728.47
2018-05-21T03:51:45.879Z,98730.86
2018-05-21T03:54:21.178Z,98737.85
2018-05-21T03:56:57.022Z,98737.22
2018-05-21T03:59:41.353Z,98733.39
2018-05-21T04:02:27.687Z,98736.45
2018-05-21T04:05:03.479Z,98731.13
2018-05-21T04:07:38.503Z,98737.66
2018-05-21T04:10:17.663Z,98739.32
2018-05-21T04:12:49.359Z,98743.86
2018-05-21T04:15:21.251Z,98733.88
2018-05-21T04:17:51.602Z,98734.30
2018-05-21T04:20:22.227Z,98733.18
2018-05-21T04:22:52.085Z,98736.27
2018-05-21T04:25:21.826Z,98726.98
2018-05-21T04:27:51.276Z,98721.45
2018-05-21T04:30:21.245Z,98730.73
2018-05-21T04:32:50.776Z,98718.02
2018-05-21T04:35:20.599Z,98728.64
2018-05-21T04:37:50.119Z,98727.73
2018-05-21T04:40:19.503Z,98720.78
2018-05-21T04:42:49.055Z,98722.51
2018-05-21T04:45:18.083Z,98722.81
2018-05-21T04:47:47.873Z,98717.50
2018-05-21T04:50:16.827Z,98721.42
2018-05-21T04:52:46.541Z,98717.70
2018-05-21T04:55:15.769Z,98718.00
2018-05-21T04:57:45.785Z,98725.07
2018-05-21T05:00:15.280Z,98722.06
2018-05-21T05:02:45.097Z,98707.20
2018-05-21T05:05:14.619Z,98717.47
2018-05-21T05:07:43.974Z,98708.04
2018-05-21T05:10:14.051Z,98707.26
2018-05-21T05:12:43.823Z,98698.30
2018-05-21T05:15:13.303Z,98701.42
2018-05-21T05:17:42.226Z,98696.42
2018-05-21T05:20:12.243Z,98698.59
2018-05-21T05:22:42.123Z,98694.38
2018-05-21T05:25:11.525Z,98699.77
2018-05-21T05:27:42.268Z,98697.80
2018-05-21T05:30:11.789Z,98691.81
2018-05-21T05:32:41.379Z,98696.94
2018-05-21T05:35:10.912Z,98695.41
2018-05-21T05:37:40.060Z,98695.73
2018-05-21T05:40:10.152Z,98692.05
2018-05-21T05:42:39.561Z,98698.84
2018-05-21T05:45:09.580Z,98691.81
2018-05-21T05:47:39.256Z,98688.94
2018-05-21T05:50:08.296Z,98692.25
2018-05-21T05:52:38.192Z,98697.84
2018-05-21T05:55:07.342Z,98691.13
2018-05-21T05:57:36.928Z,98687.20
2018-05-21T06:00:06.091Z,98697.08
2018-05-21T06:02:35.741Z,98689.56
2018-05-21T06:05:05.155Z,98687.30
2018-05-21T06:07:34.596Z,98684.81
2018-05-21T06:10:03.850Z,98688.55
2018-05-21T06:12:33.763Z,98687.41
2018-05-21T06:15:02.963Z,98674.08
2018-05-21T06:17:32.972Z,98680.71
2018-05-21T06:20:02.690Z,98677.30
2018-05-21T06:22:31.674Z,98670.08
2018-05-21T06:25:00.643Z,98672.33
2018-05-21T06:27:29.811Z,98667.82
2018-05-21T06:30:00.204Z,98653.12
2018-05-21T06:32:29.289Z,98653.64
2018-05-21T06:34:58.302Z,98643.84
2018-05-21T06:37:27.759Z,98645.58
2018-05-21T06:39:57.868Z,98643.23
2018-05-21T06:42:27.317Z,98644.07
2018-05-21T06:44:56.533Z,98646.72
2018-05-21T06:47:26.325Z,98636.41
2018-05-21T06:49:55.590Z,98635.59
2018-05-21T06:52:25.297Z,98641.98
2018-05-21T06:54:54.385Z,98632.56
2018-05-21T06:57:24.135Z,98635.10
2018-05-21T06:59:55.240Z,98627.91
2018-05-21T07:02:28.517Z,98628.84
2018-05-21T07:04:58.302Z,98627.31
2018-05-21T07:07:28.952Z,98613.27
2018-05-21T07:09:58.466Z,98616.61
2018-05-21T07:12:33.482Z,98609.22
2018-05-21T07:15:05.357Z,98612.23
2018-05-21T07:17:35.383Z,98607.81
2018-05-21T07:20:04.828Z,98613.83
2018-05-21T07:22:35.015Z,98612.16
2018-05-21T07:25:04.188Z,98608.73
2018-05-21T07:27:34.127Z,98594.08
2018-05-21T07:30:03.740Z,98601.45
2018-05-21T07:32:33.206Z,98600.82
2018-05-21T07:35:02.635Z,98595.22
2018-05-21T07:37:47.654Z,98594.20
2018-05-21T07:40:17.107Z,98589.84
2018-05-21T07:42:46.637Z,98583.86
2018-05-21T07:45:16.055Z,98582.09
2018-05-21T07:47:45.462Z,98575.90
2018-05-21T07:50:15.242Z,98576.93
2018-05-21T07:52:44.484Z,98573.21
2018-05-21T07:55:13.869Z,98565.96
2018-05-21T07:57:42.706Z,98562.77
2018-05-21T08:00:12.294Z,98556.88
2018-05-21T08:02:41.323Z,98546.83
2018-05-21T08:05:10.798Z,98544.46
2018-05-21T08:07:39.964Z,98544.13
2018-05-21T08:10:10.735Z,98547.05
2018-05-21T08:12:41.013Z,98547.02
2018-05-21T08:15:10.604Z,98534.42
2018-05-21T08:17:39.995Z,98534.42
2018-05-21T08:20:09.719Z,98533.33
2018-05-21T08:22:39.101Z,98522.45
2018-05-21T08:25:08.361Z,98523.66
2018-05-21T08:27:38.065Z,98516.53
2018-05-21T08:30:07.896Z,98532.73
2018-05-21T08:32:37.243Z,98521.86
2018-05-21T08:35:06.972Z,98525.63
2018-05-21T08:37:36.094Z,98513.95
2018-05-21T08:40:05.669Z,98514.02
2018-05-21T08:42:36.997Z,98514.30
2018-05-21T08:45:06.030Z,98500.45
2018-05-21T08:47:36.129Z,98502.14
2018-05-21T08:50:05.931Z,98494.56
2018-05-21T08:52:35.372Z,98491.02
2018-05-21T08:55:04.992Z,98489.50
2018-05-21T08:57:34.385Z,98488.52
2018-05-21T09:00:03.831Z,98481.50
2018-05-21T09:02:35.297Z,98475.16
2018-05-21T09:05:04.463Z,98469.16
2018-05-21T09:07:34.915Z,98466.95
2018-05-21T09:10:04.915Z,98460.63
2018-05-21T09:12:35.199Z,98454.39
2018-05-21T09:15:05.699Z,98463.20
2018-05-21T09:17:35.200Z,98463.30
2018-05-21T09:20:04.131Z,98455.44
2018-05-21T09:22:33.647Z,98456.22
2018-05-21T09:25:03.813Z,98452.47
2018-05-21T09:27:33.212Z,98446.55
2018-05-21T09:30:02.666Z,98453.56
2018-05-21T09:32:31.980Z,98447.73
2018-05-21T09:35:02.844Z,98443.27
2018-05-21T09:37:35.622Z,98439.26
2018-05-21T09:40:04.976Z,98443.16
2018-05-21T09:42:34.822Z,98436.41
2018-05-21T09:45:04.672Z,98436.92
2018-05-21T09:47:34.454Z,98432.23
2018-05-21T09:50:05.252Z,98425.77
2018-05-21T09:52:40.163Z,98422.08
2018-05-21T09:55:14.912Z,98423.17
2018-05-21T09:57:54.443Z,98420.06
2018-05-21T10:00:30.138Z,98409.56
2018-05-21T10:03:06.522Z,98404.40
2018-05-21T10:05:39.397Z,98407.81
2018-05-21T10:08:14.009Z,98398.16
2018-05-21T10:10:48.742Z,98388.69
2018-05-21T10:13:23.281Z,98388.99
2018-05-21T10:15:59.337Z,98389.23
2018-05-21T10:18:34.335Z,98392.60
2018-05-21T10:21:07.424Z,98389.50
2018-05-21T10:23:40.543Z,98381.43
2018-05-21T10:26:19.413Z,98380.39
2018-05-21T10:28:58.459Z,98381.11
2018-05-21T10:31:39.738Z,98376.39
2018-05-21T10:34:17.175Z,98380.78
2018-05-21T10:36:52.779Z,98385.22
2018-05-21T10:39:29.152Z,98379.68
2018-05-21T10:42:05.235Z,98372.84
2018-05-21T10:47:21.703Z,98363.03
2018-05-21T10:50:04.237Z,98357.08
2018-05-21T10:55:19.209Z,98352.73
2018-05-21T10:57:52.562Z,98345.19
2018-05-21T11:00:27.564Z,98347.71
2018-05-21T11:02:58.353Z,98350.95
2018-05-21T11:05:29.283Z,98349.26
2018-05-21T11:07:58.975Z,98349.31
2018-05-21T11:10:29.358Z,98344.95
2018-05-21T11:12:58.733Z,98350.95
2018-05-21T11:15:28.453Z,98353.30
2018-05-21T11:17:58.868Z,98357.31
2018-05-21T11:20:31.323Z,98352.42
2018-05-21T11:23:01.220Z,98350.61
2018-05-21T11:25:31.504Z,98343.50
2018-05-21T11:28:00.616Z,98346.45
2018-05-21T11:30:32.444Z,98353.70
2018-05-21T11:33:03.470Z,98343.97
2018-05-21T11:35:33.120Z,98343.70
2018-05-21T11:38:02.924Z,98347.55
2018-05-21T11:40:32.301Z,98347.84
2018-05-21T11:43:02.041Z,98344.11
2018-05-21T11:45:32.750Z,98344.72
2018-05-21T11:48:02.938Z,98340.70
2018-05-21T11:50:32.641Z,98339.77
2018-05-21T11:53:02.261Z,98339.14
2018-05-21T11:55:33.146Z,98343.59
2018-05-21T11:58:02.486Z,98341.23
2018-05-21T12:00:31.558Z,98337.33
2018-05-21T12:03:00.727Z,98331.48
2018-05-21T12:05:31.067Z,98336.02
2018-05-21T12:08:00.948Z,98336.73
2018-05-21T12:10:31.044Z,98340.35
2018-05-21T12:13:00.577Z,98336.73
2018-05-21T12:15:29.824Z,98338.08
2018-05-21T12:18:00.013Z,98340.41
2018-05-21T12:20:29.208Z,98342.16
2018-05-21T12:22:59.022Z,98337.39
2018-05-21T12:25:29.123Z,98339.88
2018-05-21T12:27:59.353Z,98337.00
2018-05-21T12:30:29.028Z,98344.39
2018-05-21T12:32:58.847Z,98351.86
2018-05-21T12:35:29.775Z,98352.41
2018-05-21T12:37:59.421Z,98353.86
2018-05-21T12:40:30.500Z,98351.83
2018-05-21T12:43:00.138Z,98354.11
2018-05-21T12:45:31.116Z,98360.73
2018-05-21T12:48:01.009Z,98356.39
2018-05-21T12:50:30.417Z,98367.31
2018-05-21T12:53:01.089Z,98366.22
2018-05-21T12:55:30.268Z,98369.73
2018-05-21T12:57:59.266Z,98369.68
2018-05-21T13:00:29.127Z,98369.27
2018-05-21T13:02:58.696Z,98375.89
2018-05-21T13:05:27.980Z,98374.12
2018-05-21T13:07:57.343Z,98375.58
2018-05-21T13:10:28.848Z,98379.63
2018-05-21T13:12:58.656Z,98377.42
2018-05-21T13:15:27.923Z,98387.91
2018-05-21T13:17:58.415Z,98379.52
2018-05-21T13:20:28.312Z,98389.67
2018-05-21T13:22:58.186Z,98385.36
2018-05-21T13:25:27.429Z,98379.31
2018-05-21T13:27:57.115Z,98386.56
2018-05-21T13:30:26.196Z,98386.52
2018-05-21T13:32:55.400Z,98388.70
2018-05-21T13:35:24.550Z,98389.09
2018-05-21T13:37:53.928Z,98394.49
2018-05-21T13:40:23.605Z,98394.53
2018-05-21T13:42:53.114Z,98389.66
2018-05-21T13:45:22.540Z,98395.05
2018-05-21T13:47:51.506Z,98394.92
2018-05-21T13:50:21.281Z,98403.45
2018-05-21T13:52:50.993Z,98406.19
2018-05-21T13:55:21.392Z,98410.71
2018-05-21T13:57:50.757Z,98414.13
2018-05-21T14:00:20.496Z,98413.86
2018-05-21T14:02:50.545Z,98415.08
2018-05-21T14:05:20.229Z,98421.08
2018-05-21T14:07:49.328Z,98420.02
2018-05-21T14:10:18.600Z,98431.70
2018-05-21T14:12:48.506Z,98429.95
2018-05-21T14:15:17.927Z,98431.17
2018-05-21T14:17:47.106Z,98429.48
2018-05-21T14:20:15.739Z,98433.75
2018-05-21T14:22:45.402Z,98442.09
2018-05-21T14:27:53.452Z,98448.61
2018-05-21T14:30:22.748Z,98448.52
2018-05-21T14:32:53.083Z,98460.10
2018-05-21T14:38:19.836Z,98465.06
2018-05-21T14:40:48.784Z,98467.34
2018-05-21T14:43:18.306Z,98468.48
2018-05-21T14:45:48.350Z,98466.92
2018-05-21T14:48:17.698Z,98473.75
2018-05-21T14:50:46.861Z,98473.44
2018-05-21T14:53:16.344Z,98478.77
2018-05-21T14:55:46.141Z,98479.48
2018-05-21T14:58:15.874Z,98483.16
2018-05-21T15:00:45.490Z,98489.11
2018-05-21T15:03:14.906Z,98491.80
2018-05-21T15:05:44.519Z,98492.87
2018-05-21T15:08:14.057Z,98497.13
2018-05-21T15:10:43.586Z,98495.16
2018-05-21T15:13:13.050Z,98502.45
2018-05-21T15:15:42.841Z,98502.55
2018-05-21T15:18:12.259Z,98498.38
2018-05-21T15:20:41.744Z,98501.16
2018-05-21T15:23:12.908Z,98500.19
2018-05-21T15:25:43.033Z,98499.67
2018-05-21T15:28:12.101Z,98492.83
2018-05-21T15:30:42.971Z,98486.72
2018-05-21T15:33:12.550Z,98488.27
2018-05-21T15:35:41.704Z,98483.30
2018-05-21T15:38:13.037Z,98491.02
2018-05-21T15:40:42.494Z,98494.70
2018-05-21T15:43:11.961Z,98493.92
2018-05-21T15:45:41.636Z,98491.29
2018-05-21T15:48:11.184Z,98492.41
2018-05-21T15:50:40.672Z,98495.92
2018-05-21T15:53:10.311Z,98496.70
2018-05-21T15:55:40.011Z,98501.70
2018-05-21T15:58:09.705Z,98500.20
2018-05-21T16:00:39.960Z,98496.69
2018-05-21T16:03:09.963Z,98498.34
2018-05-21T16:05:39.250Z,98497.92
2018-05-21T16:08:08.408Z,98500.00
2018-05-21T16:10:37.403Z,98496.62
2018-05-21T16:13:07.460Z,98495.56
2018-05-21T16:15:36.427Z,98493.52
2018-05-21T16:18:07.309Z,98491.77
2018-05-21T16:20:38.548Z,98488.44
2018-05-21T16:23:10.872Z,98485.27
2018-05-21T16:25:43.092Z,98486.11
2018-05-21T16:28:13.093Z,98482.70
2018-05-21T16:30:42.715Z,98488.08
2018-05-21T16:33:12.733Z,98485.18
2018-05-21T16:35:41.895Z,98485.63
2018-05-21T16:38:11.375Z,98476.63
2018-05-21T16:40:41.684Z,98484.66
2018-05-21T16:43:11.014Z,98483.73
2018-05-21T16:45:40.288Z,98478.86
2018-05-21T16:48:09.765Z,98479.17
2018-05-21T16:50:39.793Z,98484.55
2018-05-21T16:53:09.698Z,98478.45
2018-05-21T16:55:39.366Z,98475.05
2018-05-21T16:58:08.675Z,98479.43
2018-05-21T17:00:39.562Z,98476.34
2018-05-21T17:03:08.851Z,98478.20
2018-05-21T17:05:37.607Z,98479.44
2018-05-21T17:08:07.583Z,98477.37
2018-05-21T17:10:36.467Z,98474.48
2018-05-21T17:13:06.064Z,98478.34
2018-05-21T17:15:35.109Z,98476.80
2018-05-21T17:18:05.079Z,98479.91
2018-05-21T17:20:34.801Z,98475.05
2018-05-21T17:23:04.035Z,98476.19
2018-05-21T17:25:33.814Z,98473.70
2018-05-21T17:28:03.901Z,98470.80
2018-05-21T17:30:33.066Z,98472.25
2018-05-21T17:33:03.910Z,98474.42
2018-05-21T17:35:34.127Z,98473.38
2018-05-21T17:38:03.358Z,98474.52
2018-05-21T17:40:32.791Z,98476.91
2018-05-21T17:43:02.350Z,98475.15
2018-05-21T17:45:32.179Z,98475.67
2018-05-21T17:48:01.831Z,98478.05
2018-05-21T17:50:31.946Z,98475.70
2018-05-21T17:53:01.229Z,98476.33
2018-05-21T17:55:30.468Z,98467.45
2018-05-21T17:57:59.654Z,98468.42
2018-05-21T18:00:29.728Z,98463.77
2018-05-21T18:02:58.851Z,98456.84
2018-05-21T18:05:28.933Z,98452.71
2018-05-21T18:07:58.458Z,98450.95
2018-05-21T18:10:28.916Z,98444.84
2018-05-21T18:12:58.157Z,98446.91
2018-05-21T18:15:28.229Z,98448.31
2018-05-21T18:17:57.508Z,98447.50
2018-05-21T18:20:27.671Z,98437.97
2018-05-21T18:22:57.221Z,98440.92
2018-05-21T18:25:26.402Z,98439.77
2018-05-21T18:27:56.134Z,98442.41
2018-05-21T18:30:25.498Z,98444.02
2018-05-21T18:32:54.825Z,98443.29
2018-05-21T18:35:24.234Z,98441.32
2018-05-21T18:37:53.797Z,98437.70
2018-05-21T18:40:23.000Z,98433.36
2018-05-21T18:42:52.413Z,98427.78
2018-05-21T18:45:22.052Z,98431.41
2018-05-21T18:47:51.165Z,98426.28
2018-05-21T18:50:20.269Z,98428.77
2018-05-21T18:52:49.515Z,98425.04
2018-05-21T19:00:59.052Z,98421.55
2018-05-21T19:03:28.321Z,98412.56
2018-05-21T19:05:57.366Z,98417.16
2018-05-21T19:08:26.671Z,98409.09
2018-05-21T19:10:55.387Z,98404.27
2018-05-21T19:13:24.991Z,98399.60
2018-05-21T19:15:54.525Z,98400.11
2018-05-21T19:18:23.556Z,98399.60
2018-05-21T19:21:08.027Z,98403.94
2018-05-21T19:23:37.441Z,98399.70
2018-05-21T19:26:06.278Z,98400.22
2018-05-21T19:28:36.857Z,98397.53
2018-05-21T19:31:06.645Z,98395.37
2018-05-21T19:33:35.690Z,98392.45
2018-05-21T19:36:05.352Z,98386.45
2018-05-21T19:38:35.714Z,98388.66
2018-05-21T19:41:05.185Z,98385.68
2018-05-21T19:43:34.174Z,98383.81
2018-05-21T19:46:03.377Z,98376.94
2018-05-21T19:48:32.246Z,98381.17
2018-05-21T19:51:01.844Z,98376.00
2018-05-21T19:53:31.239Z,98378.84
2018-05-21T19:56:00.942Z,98372.13
2018-05-21T19:58:30.749Z,98375.27
2018-05-21T20:01:00.324Z,98373.45
2018-05-21T20:03:29.345Z,98372.34
2018-05-21T20:05:58.767Z,98366.97
2018-05-21T20:08:27.481Z,98366.95
2018-05-21T20:10:56.860Z,98359.72
2018-05-21T20:13:25.898Z,98357.86
2018-05-21T20:15:56.038Z,98362.30
2018-05-21T20:18:34.165Z,98360.70
2018-05-21T20:21:04.413Z,98363.39
2018-05-21T20:23:34.230Z,98360.45
2018-05-21T20:26:03.655Z,98363.61
2018-05-21T20:28:32.884Z,98368.30
2018-05-21T20:31:02.092Z,98365.47
2018-05-21T20:33:31.262Z,98362.36
2018-05-21T20:36:00.604Z,98357.30
2018-05-21T20:38:29.388Z,98365.25
2018-05-21T20:40:58.727Z,98362.56
2018-05-21T20:43:28.001Z,98363.55
2018-05-21T20:45:57.388Z,98364.38
2018-05-21T20:48:26.761Z,98362.66
2018-05-21T20:50:56.636Z,98353.53
2018-05-21T20:53:25.619Z,98352.19
2018-05-21T20:55:54.962Z,98349.50
2018-05-21T20:58:23.964Z,98346.80
2018-05-21T21:00:53.472Z,98342.05
2018-05-21T21:03:23.639Z,98340.41
2018-05-21T21:05:52.957Z,98334.34
2018-05-21T21:08:22.335Z,98334.98
2018-05-21T21:10:52.049Z,98342.36
2018-05-21T21:13:21.363Z,98337.62
2018-05-21T21:15:50.771Z,98340.55
2018-05-21T21:18:20.234Z,98344.47
2018-05-21T21:20:49.272Z,98343.75
2018-05-21T21:23:18.057Z,98349.55
2018-05-21T21:25:47.025Z,98351.72
2018-05-21T21:28:16.169Z,98346.75
2018-05-21T21:30:45.011Z,98354.60
2018-05-21T21:33:14.057Z,98349.95
2018-05-21T21:35:43.017Z,98347.78
2018-05-21T21:38:12.411Z,98347.89
2018-05-21T21:40:42.121Z,98344.64
2018-05-21T21:43:11.963Z,98346.55
2018-05-21T21:45:40.919Z,98343.51
2018-05-21T21:48:09.672Z,98339.16
2018-05-21T21:50:39.273Z,98339.83
2018-05-21T21:53:09.453Z,98336.10
2018-05-21T21:55:38.948Z,98340.23
2018-05-21T21:58:08.650Z,98345.82
2018-05-21T22:00:38.616Z,98347.48
2018-05-21T22:03:07.994Z,98345.73
2018-05-21T22:05:37.090Z,98342.83
2018-05-21T22:08:05.634Z,98342.62
2018-05-21T22:10:35.285Z,98344.80
2018-05-21T22:13:04.271Z,98340.70
2018-05-21T22:15:33.224Z,98339.73
2018-05-21T22:18:02.982Z,98340.66
2018-05-21T22:20:32.401Z,98347.17
2018-05-21T22:23:01.036Z,98354.95
2018-05-21T22:25:30.323Z,98357.13
2018-05-21T22:28:00.040Z,98361.23
2018-05-21T22:30:29.102Z,98365.16
2018-05-21T22:32:58.091Z,98366.23
2018-05-21T22:35:27.288Z,98369.44
2018-05-21T22:37:56.680Z,98366.75
2018-05-21T22:40:25.920Z,98369.55
2018-05-21T22:42:55.507Z,98376.30
2018-05-21T22:45:24.795Z,98372.48
2018-05-21T22:47:53.565Z,98378.27
2018-05-21T22:50:22.911Z,98381.57
2018-05-21T22:52:52.151Z,98385.39
2018-05-21T22:55:21.439Z,98389.11
2018-05-21T22:57:50.387Z,98390.24
2018-05-21T23:00:19.298Z,98389.08
2018-05-21T23:02:48.788Z,98396.34
2018-05-21T23:05:18.096Z,98402.70
2018-05-21T23:07:47.096Z,98407.77
2018-05-21T23:10:16.874Z,98405.97
2018-05-21T23:12:46.381Z,98407.25
2018-05-21T23:15:15.055Z,98408.19
2018-05-21T23:17:44.996Z,98403.95
2018-05-21T23:20:15.692Z,98413.34
2018-05-21T23:22:46.231Z,98417.27
2018-05-21T23:25:16.016Z,98418.00
2018-05-21T23:27:45.622Z,98411.38
2018-05-21T23:30:15.225Z,98414.08
2018-05-21T23:32:44.890Z,98408.29
2018-05-21T23:35:14.545Z,98407.36
2018-05-21T23:37:43.589Z,98414.73
2018-05-21T23:40:12.965Z,98415.55
2018-05-21T23:42:41.733Z,98425.33
2018-05-21T23:45:11.608Z,98419.66
2018-05-21T23:47:41.449Z,98423.41
2018-05-21T23:50:11.351Z,98425.27
2018-05-21T23:52:40.418Z,98422.58
2018-05-21T23:55:09.797Z,98429.22
2018-05-21T23:57:38.885Z,98432.01
